Barkley Regional Airport
KPAH : rendu visible

Aérodrome :











RETROUVEZ-NOUS SUR...

 
LOGIN :

S'inscrire | Disclaimer

   EN    FR    IT 

 









Légende :    VFR   VFR Marginal   IFR   IFR Intensif   IFR Très Intensif
Visi : 
Plafond : 
>= 8 km
>= 3000ft
5 à 8 km
1000 à 3000 ft
1500m à 5 km
500 à 1000 ft
800 à 1500m
200 à 500 ft
< 800m
< 200 ft
Symboles :   Orages  Brouillard  Fortes neiges  Fortes précipitations  Vent > 20 kt






- Altitude de l'aérodrome : 410 ft
- Code IATA : PAH


KPAH - Barkley Regional

DERNIER METAR :
  • 250353Z 17011G21KT 10SM BKN080 OVC100 14/03 A2992 RMK AO2 SLP130 T01390033

METARs EXPIRÉS :
  • 250253Z 17012G19KT 10SM OVC095 13/03 A2995 RMK AO2 SLP140 T01330028 58018
  • 250153Z 16008KT 10SM BKN080 BKN110 12/02 A2997 RMK AO2 SLP150 T01220017

TAF KPAH
Valide du 25 à 00h jusqu'au 26 à 00h UTC


242329Z 2500/2524 16009KT P6SM BKN250
FM250300 17012KT P6SM -SHRA BKN060
FM250600 17012G19KT 4SM SHRA VCTS SCT015CB OVC040
TEMPO 2506/2510 3SM SHRA BR BKN025
FM251000 18014G24KT P6SM -SHRA BKN015 OVC040
FM251700 23018G28KT P6SM -SHRA VCTS SCT015CB BKN030
FM252200 24013G20KT P6SM VCSH SCT035
FIR KZME / Amérique du Nord



MET'MAP, la Météo Aéronautique d'un coup d'oeil ! - Copyright ORBIFLY Décembre 2007 - Disclaimer

ORBIFLY MET'MAP TEAM :

Programmation & Développement : Alexandra Zaïnal
Sur une idée originale de : Baudouin d'Aumeries
Assistance à la programmation : Marc-Olivier Méhu
Soutien technique & logistique : Manuel Goepfert

Contact : metmap@orbifly.com




SOURCES & CREDITS :

   NOAA       Earth
Advisory